createdAt,value
2023-04-07T00:02:00.546Z,99.90
2023-04-07T00:04:30.353Z,99.90
2023-04-07T00:07:01.148Z,99.90
2023-04-07T00:09:30.688Z,99.90
2023-04-07T00:12:02.032Z,99.90
2023-04-07T00:14:31.491Z,99.90
2023-04-07T00:17:01.145Z,99.90
2023-04-07T00:19:30.725Z,99.90
2023-04-07T00:22:00.295Z,99.90
2023-04-07T00:24:34.332Z,99.90
2023-04-07T00:27:01.170Z,99.90
2023-04-07T00:29:30.645Z,99.90
2023-04-07T00:32:00.118Z,99.90
2023-04-07T00:34:30.541Z,99.90
2023-04-07T00:37:00.036Z,99.90
2023-04-07T00:39:29.950Z,99.90
2023-04-07T00:41:59.467Z,99.90
2023-04-07T00:44:29.017Z,99.90
2023-04-07T00:46:58.490Z,99.90
2023-04-07T00:49:29.910Z,99.90
2023-04-07T00:52:00.194Z,99.90
2023-04-07T00:54:31.606Z,99.90
2023-04-07T00:57:01.829Z,99.90
2023-04-07T00:59:32.758Z,99.90
2023-04-07T01:02:17.558Z,99.90
2023-04-07T01:05:11.781Z,99.90
2023-04-07T01:07:45.058Z,99.90
2023-04-07T01:10:19.799Z,99.90
2023-04-07T01:12:59.796Z,99.90
2023-04-07T01:15:31.788Z,99.90
2023-04-07T01:18:08.694Z,99.90
2023-04-07T01:20:39.804Z,99.90
2023-04-07T01:23:10.064Z,99.90
2023-04-07T01:25:59.289Z,99.90
2023-04-07T01:28:51.011Z,99.90
2023-04-07T01:31:21.660Z,99.90
2023-04-07T01:33:53.074Z,99.90
2023-04-07T01:36:24.905Z,99.90
2023-04-07T01:38:55.614Z,99.90
2023-04-07T01:41:26.956Z,99.90
2023-04-07T01:43:57.477Z,99.90
2023-04-07T01:46:27.777Z,99.90
2023-04-07T01:48:58.828Z,99.90
2023-04-07T01:51:29.942Z,99.90
2023-04-07T01:54:02.950Z,99.90
2023-04-07T01:56:32.579Z,99.90
2023-04-07T01:59:03.110Z,99.90
2023-04-07T02:01:32.809Z,99.90
2023-04-07T02:04:29.872Z,99.90
2023-04-07T02:07:06.002Z,99.90
2023-04-07T02:09:40.652Z,99.90
2023-04-07T02:12:14.049Z,99.90
2023-04-07T02:14:46.046Z,99.90
2023-04-07T02:17:18.658Z,99.90
2023-04-07T02:19:48.822Z,99.90
2023-04-07T02:22:19.237Z,99.90
2023-04-07T02:25:40.475Z,99.90
2023-04-07T02:28:10.006Z,99.90
2023-04-07T02:30:39.548Z,99.90
2023-04-07T02:33:09.370Z,99.90
2023-04-07T02:35:38.883Z,99.90
2023-04-07T02:38:08.365Z,99.90
2023-04-07T02:40:38.644Z,99.90
2023-04-07T02:43:08.825Z,99.90
2023-04-07T02:45:38.416Z,99.90
2023-04-07T02:48:08.018Z,99.90
2023-04-07T02:50:39.016Z,99.90
2023-04-07T02:53:08.563Z,99.90
2023-04-07T02:55:38.612Z,99.90
2023-04-07T02:58:08.150Z,99.90
2023-04-07T03:00:39.445Z,99.90
2023-04-07T03:03:19.509Z,99.90
2023-04-07T03:06:00.721Z,99.90
2023-04-07T03:08:30.735Z,99.90
2023-04-07T03:11:00.961Z,99.90
2023-04-07T03:13:32.606Z,99.90
2023-04-07T03:16:03.248Z,99.90
2023-04-07T03:18:34.436Z,99.90
2023-04-07T03:21:04.531Z,99.90
2023-04-07T03:23:34.229Z,99.90
2023-04-07T03:26:04.455Z,99.90
2023-04-07T03:28:35.646Z,99.90
2023-04-07T03:31:05.860Z,99.90
2023-04-07T03:33:36.673Z,99.90
2023-04-07T03:36:06.912Z,99.90
2023-04-07T03:38:36.716Z,99.90
2023-04-07T03:41:06.613Z,99.90
2023-04-07T03:43:36.823Z,99.90
2023-04-07T03:46:06.509Z,99.90
2023-04-07T03:48:36.609Z,99.90
2023-04-07T03:51:07.869Z,99.90
2023-04-07T03:53:37.531Z,99.90
2023-04-07T03:56:11.563Z,99.90
2023-04-07T03:58:43.020Z,99.90
2023-04-07T04:01:14.323Z,99.90
2023-04-07T04:03:46.306Z,99.90
2023-04-07T04:06:27.284Z,99.90
2023-04-07T04:08:58.903Z,99.90
2023-04-07T04:11:28.507Z,99.90
2023-04-07T04:14:00.452Z,99.90
2023-04-07T04:16:31.845Z,99.90
2023-04-07T04:19:03.784Z,99.90
2023-04-07T04:21:34.198Z,99.90
2023-04-07T04:24:04.675Z,99.90
2023-04-07T04:26:35.448Z,99.90
2023-04-07T04:29:06.799Z,99.90
2023-04-07T04:31:36.966Z,99.90
2023-04-07T04:34:07.165Z,99.90
2023-04-07T04:36:38.448Z,99.90
2023-04-07T04:39:08.684Z,99.90
2023-04-07T04:41:38.854Z,99.90
2023-04-07T04:44:09.063Z,99.90
2023-04-07T04:46:41.429Z,99.90
2023-04-07T04:49:11.557Z,99.90
2023-04-07T04:51:42.152Z,99.90
2023-04-07T04:54:13.318Z,99.90
2023-04-07T04:56:43.089Z,99.90
2023-04-07T04:59:13.421Z,99.90
2023-04-07T05:01:48.226Z,99.90
2023-04-07T05:04:18.763Z,99.90
2023-04-07T05:06:50.696Z,99.90
2023-04-07T05:09:21.697Z,99.90
2023-04-07T05:11:51.703Z,99.90
2023-04-07T05:14:22.884Z,99.90
2023-04-07T05:16:54.801Z,99.90
2023-04-07T05:19:27.224Z,99.90
2023-04-07T05:21:57.591Z,99.90
2023-04-07T05:24:30.970Z,99.90
2023-04-07T05:27:03.260Z,99.90
2023-04-07T05:29:33.078Z,99.90
2023-04-07T05:32:03.774Z,99.90
2023-04-07T05:34:33.901Z,99.90
2023-04-07T05:37:03.459Z,99.90
2023-04-07T05:39:34.012Z,99.90
2023-04-07T05:42:04.895Z,99.90
2023-04-07T05:44:35.064Z,99.90
2023-04-07T05:47:06.261Z,99.90
2023-04-07T05:49:37.460Z,99.90
2023-04-07T05:52:08.875Z,99.90
2023-04-07T05:54:41.802Z,99.90
2023-04-07T05:57:13.147Z,99.90
2023-04-07T05:59:44.902Z,99.90
2023-04-07T06:02:15.057Z,99.90
2023-04-07T06:04:46.985Z,99.90
2023-04-07T06:07:18.392Z,99.90
2023-04-07T06:09:48.159Z,99.90
2023-04-07T06:12:18.162Z,99.90
2023-04-07T06:14:51.784Z,99.90
2023-04-07T06:17:21.385Z,99.90
2023-04-07T06:19:52.001Z,99.90
2023-04-07T06:22:21.921Z,99.90
2023-04-07T06:24:51.956Z,99.90
2023-04-07T06:27:23.182Z,99.90
2023-04-07T06:29:52.737Z,99.90
2023-04-07T06:32:22.229Z,99.90
2023-04-07T06:34:52.514Z,99.90
2023-04-07T06:37:24.165Z,99.90
2023-04-07T06:39:53.788Z,99.90
2023-04-07T06:42:23.268Z,99.90
2023-04-07T06:44:54.995Z,99.90
2023-04-07T06:47:24.505Z,99.90
2023-04-07T06:49:54.048Z,99.90
2023-04-07T06:52:23.647Z,99.90
2023-04-07T06:54:53.123Z,99.90
2023-04-07T06:57:23.623Z,99.90
2023-04-07T06:59:53.087Z,99.90
2023-04-07T07:02:22.703Z,99.90
2023-04-07T07:04:52.921Z,99.90
2023-04-07T07:07:22.406Z,99.90
2023-04-07T07:09:52.057Z,99.90
2023-04-07T07:12:21.668Z,99.90
2023-04-07T07:14:51.215Z,99.90
2023-04-07T07:17:20.761Z,99.90
2023-04-07T07:19:50.618Z,99.90
2023-04-07T07:22:20.088Z,99.90
2023-04-07T07:24:49.650Z,99.90
2023-04-07T07:27:19.689Z,99.90
2023-04-07T07:29:52.473Z,99.90
2023-04-07T07:32:22.090Z,99.90
2023-04-07T07:34:51.642Z,99.90
2023-04-07T07:37:21.115Z,99.90
2023-04-07T07:39:50.756Z,99.90
2023-04-07T07:42:20.363Z,99.90
2023-04-07T07:44:49.853Z,99.90
2023-04-07T07:47:19.546Z,99.90
2023-04-07T07:49:49.077Z,99.90
2023-04-07T07:52:19.007Z,99.90
2023-04-07T07:54:50.227Z,99.90
2023-04-07T07:57:19.733Z,99.90
2023-04-07T07:59:50.032Z,99.90
2023-04-07T08:02:22.111Z,99.90
2023-04-07T08:04:52.127Z,99.90
2023-04-07T08:07:22.146Z,99.90
2023-04-07T08:09:51.742Z,99.90
2023-04-07T08:12:21.734Z,99.90
2023-04-07T08:14:51.351Z,99.90
2023-04-07T08:17:20.929Z,99.90
2023-04-07T08:19:50.627Z,99.90
2023-04-07T08:22:22.744Z,99.90
2023-04-07T08:24:52.518Z,99.90
2023-04-07T08:27:22.043Z,99.90
2023-04-07T08:30:03.979Z,99.90
2023-04-07T08:32:38.046Z,99.90
2023-04-07T08:35:08.349Z,99.90
2023-04-07T08:37:39.408Z,99.90
2023-04-07T08:40:10.792Z,99.90
2023-04-07T08:42:43.829Z,99.90
2023-04-07T08:45:15.118Z,99.90
2023-04-07T08:47:48.471Z,99.90
2023-04-07T08:50:18.709Z,99.90
2023-04-07T08:52:53.879Z,99.90
2023-04-07T08:55:24.107Z,99.90
2023-04-07T08:57:55.585Z,99.90
2023-04-07T09:00:25.595Z,99.90
2023-04-07T09:02:58.918Z,99.90
2023-04-07T09:05:28.886Z,99.90
2023-04-07T09:07:58.352Z,99.90
2023-04-07T09:10:28.168Z,99.90
2023-04-07T09:13:00.617Z,99.90
2023-04-07T09:15:35.048Z,99.90
2023-04-07T09:18:06.968Z,99.90
2023-04-07T09:21:02.746Z,99.90
2023-04-07T09:23:34.873Z,99.90
2023-04-07T09:26:25.912Z,99.90
2023-04-07T09:28:58.288Z,99.90
2023-04-07T09:31:37.785Z,99.90
2023-04-07T09:34:10.777Z,99.90
2023-04-07T09:36:43.965Z,99.90
2023-04-07T09:39:13.529Z,99.90
2023-04-07T09:41:43.117Z,99.90
2023-04-07T09:44:12.795Z,99.90
2023-04-07T09:46:56.388Z,99.90
2023-04-07T09:49:27.381Z,99.90
2023-04-07T09:52:03.941Z,99.90
2023-04-07T09:54:38.951Z,99.90
2023-04-07T09:57:13.906Z,99.90
2023-04-07T09:59:44.746Z,99.90
2023-04-07T10:02:14.466Z,99.90
2023-04-07T10:04:44.372Z,99.90
2023-04-07T10:07:14.415Z,99.90
2023-04-07T10:09:43.970Z,99.90
2023-04-07T10:12:15.462Z,99.90
2023-04-07T10:14:47.325Z,99.90
2023-04-07T10:17:20.626Z,99.90
2023-04-07T10:19:51.937Z,99.90
2023-04-07T10:22:22.365Z,99.90
2023-04-07T10:24:57.612Z,99.90
2023-04-07T10:27:35.969Z,99.90
2023-04-07T10:30:08.220Z,99.90
2023-04-07T10:32:52.824Z,99.90
2023-04-07T10:35:23.779Z,99.90
2023-04-07T10:38:12.175Z,99.90
2023-04-07T10:40:43.941Z,99.90
2023-04-07T10:43:15.284Z,99.90
2023-04-07T10:45:52.209Z,99.90
2023-04-07T10:48:22.936Z,99.90
2023-04-07T10:51:12.087Z,99.90
2023-04-07T10:54:03.508Z,99.40
2023-04-07T10:56:54.008Z,99.90
2023-04-07T10:59:25.230Z,99.90
2023-04-07T11:02:18.502Z,99.90
2023-04-07T11:04:48.858Z,99.90
2023-04-07T11:07:20.218Z,99.90
2023-04-07T11:09:49.774Z,99.90
2023-04-07T11:12:26.842Z,99.90
2023-04-07T11:14:57.078Z,99.90
2023-04-07T11:17:28.526Z,99.90
2023-04-07T11:19:59.111Z,99.90
2023-04-07T11:22:30.441Z,99.80
2023-04-07T11:24:59.657Z,99.90
2023-04-07T11:27:30.613Z,99.90
2023-04-07T11:30:00.706Z,99.90
2023-04-07T11:32:30.660Z,99.80
2023-04-07T11:35:00.246Z,98.90
2023-04-07T11:37:31.976Z,99.30
2023-04-07T11:40:02.038Z,98.50
2023-04-07T11:42:41.442Z,98.70
2023-04-07T11:45:21.433Z,98.80
2023-04-07T11:47:51.284Z,99.20
2023-04-07T11:50:41.169Z,99.20
2023-04-07T11:53:11.088Z,99.60
2023-04-07T11:55:40.631Z,99.40
2023-04-07T11:58:11.491Z,99.20
2023-04-07T12:00:58.476Z,99.00
2023-04-07T12:03:28.935Z,98.20
2023-04-07T12:05:58.899Z,98.40
2023-04-07T12:08:45.594Z,98.60
2023-04-07T12:11:15.056Z,98.20
2023-04-07T12:13:44.523Z,97.40
2023-04-07T12:16:14.181Z,98.40
2023-04-07T12:18:44.208Z,98.80
2023-04-07T12:21:13.750Z,98.70
2023-04-07T12:23:43.246Z,97.60
2023-04-07T12:26:13.433Z,98.90
2023-04-07T12:28:43.097Z,98.40
2023-04-07T12:31:12.598Z,97.90
2023-04-07T12:33:42.072Z,97.00
2023-04-07T12:36:12.320Z,97.40
2023-04-07T12:38:42.729Z,98.10
2023-04-07T12:41:12.970Z,96.80
2023-04-07T12:43:42.623Z,98.10
2023-04-07T12:46:13.529Z,95.90
2023-04-07T12:48:43.217Z,97.90
2023-04-07T12:51:13.077Z,97.70
2023-04-07T12:53:42.619Z,97.80
2023-04-07T12:56:13.719Z,97.00
2023-04-07T12:58:43.345Z,97.20
2023-04-07T13:01:12.867Z,96.10
2023-04-07T13:03:43.935Z,96.80
2023-04-07T13:06:13.792Z,98.00
2023-04-07T13:08:43.457Z,97.40
2023-04-07T13:11:13.553Z,97.00
2023-04-07T13:13:43.039Z,97.80
2023-04-07T13:16:12.658Z,97.80
2023-04-07T13:18:42.744Z,98.10
2023-04-07T13:21:42.734Z,97.60
2023-04-07T13:23:44.414Z,97.30
2023-04-07T13:26:13.955Z,97.40
2023-04-07T13:28:45.199Z,96.40
2023-04-07T13:31:16.531Z,97.10
2023-04-07T13:33:47.080Z,98.00
2023-04-07T13:36:17.081Z,97.40
2023-04-07T13:38:47.322Z,98.10
2023-04-07T13:41:16.799Z,98.60
2023-04-07T13:43:46.356Z,97.50
2023-04-07T13:46:28.097Z,97.00
2023-04-07T13:48:49.597Z,97.90
2023-04-07T13:51:20.443Z,97.80
2023-04-07T13:53:51.824Z,97.70
2023-04-07T13:56:22.848Z,97.60
2023-04-07T13:58:52.574Z,98.40
2023-04-07T14:01:22.394Z,96.90
2023-04-07T14:03:53.233Z,97.10
2023-04-07T14:06:23.810Z,97.10
2023-04-07T14:08:54.263Z,97.30
2023-04-07T14:11:24.464Z,97.80
2023-04-07T14:13:54.383Z,96.70
2023-04-07T14:16:24.166Z,97.80
2023-04-07T14:18:53.684Z,98.00
2023-04-07T14:21:24.585Z,97.80
2023-04-07T14:23:54.604Z,97.30
2023-04-07T14:26:25.160Z,97.70
2023-04-07T14:28:54.643Z,98.50
2023-04-07T14:31:24.214Z,97.90
2023-04-07T14:33:55.469Z,97.50
2023-04-07T14:36:24.915Z,98.20
2023-04-07T14:38:55.608Z,98.00
2023-04-07T14:41:25.932Z,98.00
2023-04-07T14:43:58.974Z,97.90
2023-04-07T14:46:28.564Z,98.30
2023-04-07T14:48:58.659Z,98.40
2023-04-07T14:51:28.859Z,99.00
2023-04-07T14:53:58.347Z,98.00
2023-04-07T14:56:27.816Z,98.20
2023-04-07T14:58:57.565Z,97.60
2023-04-07T15:01:27.081Z,98.60
2023-04-07T15:03:58.447Z,98.40
2023-04-07T15:06:28.471Z,98.10
2023-04-07T15:08:58.450Z,98.20
2023-04-07T15:11:27.930Z,98.30
2023-04-07T15:13:57.413Z,98.60
2023-04-07T15:16:27.568Z,98.00
2023-04-07T15:18:57.114Z,97.20
2023-04-07T15:21:27.106Z,96.40
2023-04-07T15:23:56.673Z,97.20
2023-04-07T15:26:26.215Z,96.00
2023-04-07T15:28:55.880Z,97.20
2023-04-07T15:31:27.107Z,96.80
2023-04-07T15:33:57.158Z,95.90
2023-04-07T15:36:27.423Z,95.80
2023-04-07T15:38:56.962Z,95.50
2023-04-07T15:41:27.513Z,97.00
2023-04-07T15:43:57.580Z,97.10
2023-04-07T15:46:27.404Z,97.30
2023-04-07T15:48:57.080Z,96.80
2023-04-07T15:51:27.680Z,96.90
2023-04-07T15:53:57.524Z,97.60
2023-04-07T15:56:27.905Z,97.60
2023-04-07T15:58:57.360Z,97.90
2023-04-07T16:01:26.881Z,98.10
2023-04-07T16:03:56.714Z,98.60
2023-04-07T16:06:27.626Z,98.30
2023-04-07T16:08:57.091Z,98.20
2023-04-07T16:11:27.530Z,97.20
2023-04-07T16:13:57.002Z,97.80
2023-04-07T16:16:26.616Z,97.10
2023-04-07T16:18:56.626Z,97.60
2023-04-07T16:21:27.494Z,97.40
2023-04-07T16:23:57.505Z,96.90
2023-04-07T16:26:27.155Z,96.70
2023-04-07T16:28:56.624Z,96.20
2023-04-07T16:31:26.254Z,96.40
2023-04-07T16:33:55.795Z,96.30
2023-04-07T16:36:26.604Z,96.50
2023-04-07T16:38:57.689Z,96.10
2023-04-07T16:41:28.548Z,96.50
2023-04-07T16:43:58.098Z,96.90
2023-04-07T16:46:31.487Z,97.00
2023-04-07T16:49:02.645Z,97.10
2023-04-07T16:51:32.626Z,96.80
2023-04-07T16:54:02.095Z,96.90
2023-04-07T16:56:31.648Z,97.60
2023-04-07T16:59:03.377Z,96.60
2023-04-07T17:01:32.565Z,96.70
2023-04-07T17:04:03.008Z,96.60
2023-04-07T17:06:33.148Z,97.40
2023-04-07T17:09:02.764Z,97.50
2023-04-07T17:11:32.769Z,97.60
2023-04-07T17:14:02.772Z,97.40
2023-04-07T17:16:32.327Z,97.30
2023-04-07T17:19:02.013Z,96.90
2023-04-07T17:21:32.026Z,97.20
2023-04-07T17:24:01.639Z,97.40
2023-04-07T17:26:31.648Z,97.90
2023-04-07T17:29:01.746Z,97.80
2023-04-07T17:31:32.267Z,98.40
2023-04-07T17:34:01.893Z,98.40
2023-04-07T17:36:33.426Z,98.30
2023-04-07T17:39:03.403Z,98.60
2023-04-07T17:41:37.725Z,98.60
2023-04-07T17:44:07.226Z,98.70
2023-04-07T17:46:36.784Z,99.00
2023-04-07T17:49:06.605Z,99.00
2023-04-07T17:51:36.080Z,98.70
2023-04-07T17:54:06.516Z,99.40
2023-04-07T17:56:35.986Z,99.50
2023-04-07T17:59:05.742Z,99.30
2023-04-07T18:01:35.739Z,99.70
2023-04-07T18:04:06.612Z,99.60
2023-04-07T18:06:37.481Z,99.80
2023-04-07T18:09:07.532Z,99.80
2023-04-07T18:11:37.704Z,99.90
2023-04-07T18:14:07.264Z,99.90
2023-04-07T18:16:36.796Z,99.90
2023-04-07T18:19:06.903Z,99.90
2023-04-07T18:21:36.441Z,99.90
2023-04-07T18:24:06.228Z,99.90
2023-04-07T18:26:36.777Z,99.90
2023-04-07T18:29:10.061Z,99.90
2023-04-07T18:31:42.595Z,99.90
2023-04-07T18:34:12.897Z,99.90
2023-04-07T18:36:43.115Z,99.90
2023-04-07T18:39:13.560Z,99.90
2023-04-07T18:41:48.405Z,99.90
2023-04-07T18:44:18.467Z,99.90
2023-04-07T18:46:48.309Z,99.90
2023-04-07T18:49:17.888Z,99.90
2023-04-07T18:51:48.284Z,99.90
2023-04-07T18:54:18.607Z,99.90
2023-04-07T18:56:48.552Z,99.90
2023-04-07T18:59:18.029Z,99.90
2023-04-07T19:01:47.978Z,99.90
2023-04-07T19:04:18.249Z,99.90
2023-04-07T19:06:49.819Z,99.90
2023-04-07T19:09:20.543Z,99.90
2023-04-07T19:11:51.528Z,99.90
2023-04-07T19:14:21.799Z,99.90
2023-04-07T19:16:53.064Z,99.90
2023-04-07T19:19:23.884Z,99.90
2023-04-07T19:21:53.794Z,99.90
2023-04-07T19:24:24.123Z,99.90
2023-04-07T19:26:54.242Z,99.90
2023-04-07T19:29:24.167Z,99.90
2023-04-07T19:31:55.749Z,99.90
2023-04-07T19:34:25.924Z,99.90
2023-04-07T19:36:55.942Z,99.90
2023-04-07T19:39:25.447Z,99.90
2023-04-07T19:41:56.793Z,99.90
2023-04-07T19:44:28.405Z,99.90
2023-04-07T19:46:59.700Z,99.90
2023-04-07T19:49:29.413Z,99.90
2023-04-07T19:51:59.357Z,99.90
2023-04-07T19:54:30.260Z,99.90
2023-04-07T19:57:00.377Z,99.90
2023-04-07T19:59:30.087Z,99.90
2023-04-07T20:02:00.050Z,99.90
2023-04-07T20:04:30.547Z,99.90
2023-04-07T20:07:00.450Z,99.90
2023-04-07T20:09:30.574Z,99.90
2023-04-07T20:12:01.990Z,99.90
2023-04-07T20:14:32.261Z,99.90
2023-04-07T20:17:01.837Z,99.90
2023-04-07T20:19:31.721Z,99.90
2023-04-07T20:22:01.778Z,99.90
2023-04-07T20:24:32.107Z,99.90
2023-04-07T20:27:02.437Z,99.90
2023-04-07T20:29:32.145Z,99.90
2023-04-07T20:32:01.861Z,99.90
2023-04-07T20:34:32.378Z,99.90
2023-04-07T20:37:02.495Z,99.90
2023-04-07T20:39:33.035Z,99.90
2023-04-07T20:42:03.326Z,99.90
2023-04-07T20:44:32.918Z,99.90
2023-04-07T20:47:14.954Z,99.90
2023-04-07T20:49:45.183Z,99.90
2023-04-07T20:52:15.095Z,99.90
2023-04-07T20:54:45.619Z,99.90
2023-04-07T20:57:15.146Z,99.90
2023-04-07T20:59:45.040Z,99.90
2023-04-07T21:02:15.038Z,99.90
2023-04-07T21:04:44.873Z,99.90
2023-04-07T21:07:14.781Z,99.90
2023-04-07T21:09:44.581Z,99.90
2023-04-07T21:12:14.791Z,99.90
2023-04-07T21:14:46.574Z,99.90
2023-04-07T21:17:16.507Z,99.90
2023-04-07T21:19:47.230Z,99.90
2023-04-07T21:22:16.822Z,99.90
2023-04-07T21:24:46.667Z,99.90
2023-04-07T21:27:17.693Z,99.90
2023-04-07T21:29:47.337Z,99.90
2023-04-07T21:32:16.799Z,99.90
2023-04-07T21:34:46.300Z,99.90
2023-04-07T21:37:17.851Z,99.90
2023-04-07T21:39:47.354Z,99.90
2023-04-07T21:42:17.683Z,99.90
2023-04-07T21:44:47.699Z,99.90
2023-04-07T21:47:17.926Z,99.90
2023-04-07T21:49:48.242Z,99.90
2023-04-07T21:52:18.220Z,99.90
2023-04-07T21:54:48.275Z,99.90
2023-04-07T21:57:18.331Z,99.90
2023-04-07T21:59:48.337Z,99.90
2023-04-07T22:02:18.292Z,99.90
2023-04-07T22:04:48.650Z,99.90
2023-04-07T22:07:18.872Z,99.90
2023-04-07T22:09:48.990Z,99.90
2023-04-07T22:12:19.112Z,99.90
2023-04-07T22:14:48.848Z,99.90
2023-04-07T22:17:18.530Z,99.90
2023-04-07T22:19:48.035Z,99.90
2023-04-07T22:22:17.957Z,99.90
2023-04-07T22:24:48.273Z,99.90
2023-04-07T22:27:18.154Z,99.90
2023-04-07T22:29:47.694Z,99.90
2023-04-07T22:32:17.645Z,99.90
2023-04-07T22:34:48.134Z,99.90
2023-04-07T22:37:37.303Z,99.90
2023-04-07T22:40:08.918Z,99.90
2023-04-07T22:42:39.993Z,99.90
2023-04-07T22:45:10.559Z,99.90
2023-04-07T22:47:41.222Z,99.90
2023-04-07T22:50:12.017Z,99.90
2023-04-07T22:52:41.573Z,99.90
2023-04-07T22:55:12.231Z,99.90
2023-04-07T22:57:42.166Z,99.90
2023-04-07T23:00:12.759Z,99.90
2023-04-07T23:02:42.961Z,99.90
2023-04-07T23:05:13.115Z,99.90
2023-04-07T23:07:42.832Z,99.90
2023-04-07T23:10:13.354Z,99.90
2023-04-07T23:12:43.273Z,99.90
2023-04-07T23:15:13.593Z,99.90
2023-04-07T23:17:43.339Z,99.90
2023-04-07T23:20:14.242Z,99.90
2023-04-07T23:22:43.745Z,99.90
2023-04-07T23:25:13.486Z,99.90
2023-04-07T23:27:43.618Z,99.90
2023-04-07T23:30:13.976Z,99.90
2023-04-07T23:32:43.882Z,99.90
2023-04-07T23:35:14.136Z,99.90
2023-04-07T23:37:43.851Z,99.90
2023-04-07T23:40:15.203Z,99.90
2023-04-07T23:42:44.701Z,99.90
2023-04-07T23:45:15.435Z,99.90
2023-04-07T23:47:45.396Z,99.90
2023-04-07T23:50:15.468Z,99.90
2023-04-07T23:52:45.409Z,99.90
2023-04-07T23:55:15.302Z,99.90
2023-04-07T23:57:45.366Z,99.90
